createdAt,value
2022-12-17T00:01:58.350Z,16.35
2022-12-17T00:04:43.766Z,16.73
2022-12-17T00:07:40.278Z,16.88
2022-12-17T00:10:26.640Z,16.38
2022-12-17T00:13:12.737Z,15.63
2022-12-17T00:15:58.383Z,17.25
2022-12-17T00:18:43.971Z,14.95
2022-12-17T00:21:29.594Z,15.48
2022-12-17T00:24:15.184Z,13.77
2022-12-17T00:27:00.704Z,14.48
2022-12-17T00:29:50.753Z,15.00
2022-12-17T00:32:37.543Z,15.38
2022-12-17T00:35:23.962Z,16.27
2022-12-17T00:38:09.388Z,17.23
2022-12-17T00:40:55.257Z,17.05
2022-12-17T00:43:42.252Z,17.52
2022-12-17T00:46:27.733Z,17.33
2022-12-17T00:49:15.876Z,17.70
2022-12-17T00:52:01.413Z,16.17
2022-12-17T00:54:46.902Z,16.77
2022-12-17T00:57:32.440Z,16.58
2022-12-17T01:00:21.186Z,16.00
2022-12-17T01:03:06.601Z,11.48
2022-12-17T01:05:52.419Z,16.95
2022-12-17T01:08:42.507Z,15.50
2022-12-17T01:11:28.053Z,14.95
2022-12-17T01:14:15.914Z,14.13
2022-12-17T01:17:05.098Z,15.20
2022-12-17T01:19:53.156Z,14.75
2022-12-17T01:22:41.806Z,14.75
2022-12-17T01:25:27.375Z,16.15
2022-12-17T01:28:12.797Z,15.40
2022-12-17T01:30:58.451Z,16.03
2022-12-17T01:33:44.128Z,16.07
2022-12-17T01:36:31.933Z,15.83
2022-12-17T01:39:22.383Z,15.53
2022-12-17T01:42:12.415Z,14.77
2022-12-17T01:44:57.954Z,14.67
2022-12-17T01:48:02.882Z,15.93
2022-12-17T01:50:52.695Z,14.13
2022-12-17T01:53:44.145Z,14.47
2022-12-17T01:56:32.310Z,14.90
2022-12-17T01:59:18.018Z,13.83
2022-12-17T02:02:06.275Z,13.47
2022-12-17T02:04:54.414Z,14.48
2022-12-17T02:07:46.144Z,13.50
2022-12-17T02:10:54.145Z,12.77
2022-12-17T02:13:53.377Z,13.07
2022-12-17T02:16:47.861Z,13.50
2022-12-17T02:19:56.557Z,12.67
2022-12-17T02:23:01.140Z,14.43
2022-12-17T02:26:31.640Z,16.07
2022-12-17T02:29:20.546Z,18.73
2022-12-17T02:32:08.606Z,19.97
2022-12-17T02:35:05.943Z,17.10
2022-12-17T02:37:53.630Z,18.23
2022-12-17T02:40:41.779Z,17.97
2022-12-17T02:43:29.710Z,18.97
2022-12-17T02:46:15.819Z,18.50
2022-12-17T02:49:01.992Z,20.45
2022-12-17T02:51:52.909Z,18.43
2022-12-17T02:54:45.413Z,18.43
2022-12-17T02:57:30.997Z,18.50
2022-12-17T03:00:16.976Z,17.55
2022-12-17T03:03:02.792Z,18.23
2022-12-17T03:05:48.482Z,16.80
2022-12-17T03:08:33.985Z,18.40
2022-12-17T03:11:22.040Z,18.00
2022-12-17T03:14:07.613Z,16.80
2022-12-17T03:17:13.171Z,16.70
2022-12-17T03:20:02.327Z,17.90
2022-12-17T03:22:48.824Z,18.92
2022-12-17T03:25:37.240Z,18.65
2022-12-17T03:28:27.710Z,19.63
2022-12-17T03:31:15.882Z,18.20
2022-12-17T03:34:01.392Z,18.73
2022-12-17T03:36:48.255Z,18.53
2022-12-17T03:39:33.840Z,19.57
2022-12-17T03:42:21.930Z,18.27
2022-12-17T03:45:07.312Z,19.77
2022-12-17T03:47:52.966Z,19.40
2022-12-17T03:50:38.424Z,18.17
2022-12-17T03:53:27.254Z,19.13
2022-12-17T03:56:15.380Z,19.37
2022-12-17T03:59:00.939Z,20.65
2022-12-17T04:01:47.523Z,21.20
2022-12-17T04:04:35.836Z,23.05
2022-12-17T04:07:21.375Z,21.77
2022-12-17T04:10:07.074Z,21.30
2022-12-17T04:12:59.586Z,18.93
2022-12-17T04:15:45.281Z,21.60
2022-12-17T04:18:35.433Z,21.50
2022-12-17T04:21:21.223Z,22.33
2022-12-17T04:24:08.772Z,21.70
2022-12-17T04:26:56.744Z,21.23
2022-12-17T04:29:42.516Z,21.00
2022-12-17T04:32:32.292Z,21.37
2022-12-17T04:35:23.502Z,20.50
2022-12-17T04:38:08.969Z,23.25
2022-12-17T04:40:54.259Z,21.87
2022-12-17T04:43:46.664Z,22.97
2022-12-17T04:46:32.688Z,22.90
2022-12-17T04:49:18.522Z,21.27
2022-12-17T04:52:04.575Z,22.30
2022-12-17T04:54:50.517Z,20.98
2022-12-17T04:57:38.177Z,19.93
2022-12-17T05:00:26.983Z,20.50
2022-12-17T05:03:22.178Z,20.00
2022-12-17T05:06:10.408Z,19.87
2022-12-17T05:08:55.766Z,17.97
2022-12-17T05:11:44.294Z,19.07
2022-12-17T05:14:29.791Z,17.70
2022-12-17T05:17:15.667Z,18.90
2022-12-17T05:20:01.149Z,18.00
2022-12-17T05:22:46.845Z,18.20
2022-12-17T05:25:34.875Z,17.83
2022-12-17T05:28:20.524Z,17.87
2022-12-17T05:31:15.560Z,18.30
2022-12-17T05:34:03.285Z,18.07
2022-12-17T05:36:48.647Z,18.73
2022-12-17T05:39:34.356Z,16.73
2022-12-17T05:42:19.734Z,17.87
2022-12-17T05:45:07.628Z,16.47
2022-12-17T05:47:53.150Z,17.87
2022-12-17T05:50:41.311Z,17.43
2022-12-17T05:53:28.377Z,17.70
2022-12-17T05:56:16.341Z,16.77
2022-12-17T05:59:04.521Z,16.97
2022-12-17T06:01:50.220Z,17.00
2022-12-17T06:04:35.824Z,17.55
2022-12-17T06:07:21.369Z,17.73
2022-12-17T06:10:06.931Z,18.10
2022-12-17T06:12:54.707Z,15.73
2022-12-17T06:15:40.197Z,17.87
2022-12-17T06:18:25.997Z,17.87
2022-12-17T06:21:14.489Z,16.40
2022-12-17T06:24:06.671Z,17.23
2022-12-17T06:26:54.619Z,17.67
2022-12-17T06:29:40.107Z,18.08
2022-12-17T06:32:27.924Z,18.53
2022-12-17T06:35:13.342Z,17.03
2022-12-17T06:38:01.076Z,18.77
2022-12-17T06:40:46.875Z,18.10
2022-12-17T06:43:35.573Z,17.90
2022-12-17T06:46:21.294Z,17.98
2022-12-17T06:49:12.346Z,18.17
2022-12-17T06:51:57.784Z,19.27
2022-12-17T06:54:43.060Z,20.90
2022-12-17T06:57:30.906Z,18.60
2022-12-17T07:00:16.498Z,21.37
2022-12-17T07:03:01.994Z,19.63
2022-12-17T07:05:47.455Z,18.03
2022-12-17T07:08:35.150Z,21.47
2022-12-17T07:11:20.614Z,20.17
2022-12-17T07:14:06.177Z,20.63
2022-12-17T07:16:54.221Z,22.00
2022-12-17T07:19:39.737Z,20.30
2022-12-17T07:22:25.515Z,22.93
2022-12-17T07:25:13.372Z,22.02
2022-12-17T07:28:01.459Z,21.87
2022-12-17T07:30:54.148Z,21.40
2022-12-17T07:33:41.123Z,20.97
2022-12-17T07:36:26.643Z,19.47
2022-12-17T07:39:12.250Z,20.47
2022-12-17T07:41:57.786Z,20.13
2022-12-17T07:44:45.869Z,20.63
2022-12-17T07:47:31.341Z,21.63
2022-12-17T07:50:19.550Z,20.83
2022-12-17T07:53:07.252Z,20.57
2022-12-17T07:55:52.943Z,20.50
2022-12-17T07:58:38.369Z,21.33
2022-12-17T08:01:27.500Z,20.43
2022-12-17T08:04:13.279Z,19.50
2022-12-17T08:07:07.103Z,19.90
2022-12-17T08:09:55.053Z,20.83
2022-12-17T08:12:40.561Z,21.10
2022-12-17T08:15:29.525Z,19.73
2022-12-17T08:18:26.653Z,19.77
2022-12-17T08:21:26.235Z,19.37
2022-12-17T08:24:25.782Z,18.53
2022-12-17T08:27:11.320Z,19.63
2022-12-17T08:29:56.676Z,17.97
2022-12-17T08:32:42.827Z,18.27
2022-12-17T08:35:30.800Z,18.70
2022-12-17T08:38:24.353Z,18.27
2022-12-17T08:41:13.100Z,18.15
2022-12-17T08:43:59.531Z,17.77
2022-12-17T08:46:44.910Z,17.92
2022-12-17T08:49:30.636Z,16.10
2022-12-17T08:52:16.679Z,18.83
2022-12-17T08:55:02.095Z,14.18
2022-12-17T08:57:47.765Z,18.52
2022-12-17T09:00:33.727Z,17.85
2022-12-17T09:03:21.290Z,19.38
2022-12-17T09:06:10.865Z,18.08
2022-12-17T09:08:56.418Z,19.25
2022-12-17T09:11:44.236Z,19.42
2022-12-17T09:14:29.749Z,19.20
2022-12-17T09:17:15.441Z,18.75
2022-12-17T09:20:00.912Z,18.55
2022-12-17T09:22:49.181Z,19.13
2022-12-17T09:25:34.875Z,17.77
2022-12-17T09:28:22.815Z,17.40
2022-12-17T09:31:08.826Z,17.50
2022-12-17T09:33:54.827Z,18.15
2022-12-17T09:36:48.023Z,18.77
2022-12-17T09:39:38.828Z,21.27
2022-12-17T09:42:50.396Z,17.98
2022-12-17T09:45:40.537Z,18.88
2022-12-17T09:48:54.402Z,18.27
2022-12-17T09:51:43.362Z,20.37
2022-12-17T09:54:41.293Z,19.70
2022-12-17T09:57:32.430Z,21.77
2022-12-17T10:00:17.885Z,22.33
2022-12-17T10:03:06.328Z,21.27
2022-12-17T10:05:54.673Z,21.57
2022-12-17T10:08:40.212Z,21.30
2022-12-17T10:11:41.736Z,20.83
2022-12-17T10:14:38.207Z,20.77
2022-12-17T10:17:36.195Z,22.73
2022-12-17T10:20:52.308Z,21.87
2022-12-17T10:23:50.415Z,22.43
2022-12-17T10:26:44.818Z,20.33
2022-12-17T10:29:34.696Z,21.10
2022-12-17T10:32:34.696Z,21.07
2022-12-17T10:35:44.658Z,21.53
2022-12-17T10:38:41.828Z,19.17
2022-12-17T10:41:53.402Z,20.48
2022-12-17T10:44:39.722Z,19.38
2022-12-17T10:47:31.146Z,18.27
2022-12-17T10:50:30.544Z,20.38
2022-12-17T10:53:16.701Z,20.40
2022-12-17T10:56:08.124Z,18.80
2022-12-17T10:58:54.086Z,18.30
2022-12-17T11:01:44.498Z,18.35
2022-12-17T11:04:41.890Z,19.10
2022-12-17T11:07:31.541Z,19.80
2022-12-17T11:10:19.866Z,19.17
2022-12-17T11:13:16.086Z,18.73
2022-12-17T11:16:13.180Z,18.40
2022-12-17T11:19:07.823Z,18.98
2022-12-17T11:22:10.225Z,19.58
2022-12-17T11:25:03.588Z,21.00
2022-12-17T11:27:57.057Z,19.95
2022-12-17T11:30:47.249Z,19.33
2022-12-17T11:33:49.516Z,20.83
2022-12-17T11:37:00.890Z,18.73
2022-12-17T11:40:00.459Z,19.92
2022-12-17T11:42:54.730Z,18.27
2022-12-17T11:45:47.962Z,20.70
2022-12-17T11:48:39.217Z,19.92
2022-12-17T11:51:45.319Z,20.48
2022-12-17T11:54:49.447Z,19.83
2022-12-17T11:57:47.976Z,20.20
2022-12-17T12:00:41.750Z,21.05
2022-12-17T12:04:05.924Z,20.77
2022-12-17T12:07:19.946Z,21.60
2022-12-17T12:10:47.087Z,22.60
2022-12-17T12:13:37.912Z,21.40
2022-12-17T12:16:49.930Z,22.08
2022-12-17T12:20:12.981Z,22.15
2022-12-17T12:23:04.237Z,20.70
2022-12-17T12:26:18.550Z,22.48
2022-12-17T12:29:13.093Z,23.98
2022-12-17T12:32:08.389Z,23.48
2022-12-17T12:34:56.346Z,23.98
2022-12-17T12:37:42.863Z,25.42
2022-12-17T12:41:05.240Z,25.77
2022-12-17T12:43:54.175Z,25.08
2022-12-17T12:46:59.692Z,24.10
2022-12-17T12:49:54.057Z,25.87
2022-12-17T12:52:43.108Z,26.40
2022-12-17T12:55:31.999Z,26.85
2022-12-17T12:58:23.394Z,27.80
2022-12-17T13:01:08.893Z,27.15
2022-12-17T13:03:56.108Z,28.00
2022-12-17T13:06:38.469Z,28.15
2022-12-17T13:09:23.563Z,28.63
2022-12-17T13:11:55.410Z,30.25
2022-12-17T13:14:25.878Z,27.50
2022-12-17T13:17:16.373Z,28.25
2022-12-17T13:19:58.627Z,27.48
2022-12-17T13:22:33.686Z,26.65
2022-12-17T13:25:30.059Z,26.48
2022-12-17T13:27:59.632Z,64.43
2022-12-17T13:33:30.983Z,31.38
2022-12-17T13:36:11.078Z,27.33
2022-12-17T13:38:47.192Z,26.85
2022-12-17T13:41:20.040Z,25.43
2022-12-17T13:44:17.568Z,26.35
2022-12-17T13:46:49.277Z,35.95
2022-12-17T13:49:20.811Z,26.83
2022-12-17T13:51:47.951Z,29.48
2022-12-17T13:54:25.459Z,28.23
2022-12-17T13:56:53.312Z,27.80
2022-12-17T13:59:24.229Z,27.08
2022-12-17T14:01:54.247Z,25.95
2022-12-17T14:04:22.434Z,26.15
2022-12-17T14:06:50.410Z,24.42
2022-12-17T14:09:20.045Z,26.13
2022-12-17T14:12:07.331Z,23.13
2022-12-17T14:14:40.853Z,25.23
2022-12-17T14:17:41.543Z,24.95
2022-12-17T14:20:13.817Z,25.45
2022-12-17T14:22:51.119Z,30.25
2022-12-17T14:25:24.457Z,29.35
2022-12-17T14:28:04.375Z,41.38
2022-12-17T14:31:02.708Z,23.50
2022-12-17T14:33:31.140Z,24.88
2022-12-17T14:36:01.010Z,25.05
2022-12-17T14:38:38.068Z,25.73
2022-12-17T14:41:33.196Z,24.05
2022-12-17T14:44:01.957Z,27.02
2022-12-17T14:46:31.079Z,24.95
2022-12-17T14:49:06.081Z,24.52
2022-12-17T14:51:38.446Z,26.40
2022-12-17T14:54:32.330Z,24.70
2022-12-17T14:57:06.473Z,24.73
2022-12-17T14:59:36.567Z,24.67
2022-12-17T15:02:27.684Z,25.50
2022-12-17T15:04:58.954Z,24.60
2022-12-17T15:07:28.397Z,24.45
2022-12-17T15:10:00.673Z,23.35
2022-12-17T15:12:28.148Z,24.20
2022-12-17T15:14:57.837Z,24.88
2022-12-17T15:17:29.958Z,27.60
2022-12-17T15:19:56.970Z,27.92
2022-12-17T15:22:26.430Z,26.88
2022-12-17T15:24:53.344Z,26.42
2022-12-17T15:27:20.388Z,26.85
2022-12-17T15:29:47.331Z,27.75
2022-12-17T15:32:22.503Z,27.35
2022-12-17T15:34:50.636Z,27.10
2022-12-17T15:37:25.492Z,27.58
2022-12-17T15:39:58.193Z,28.90
2022-12-17T15:42:43.888Z,30.45
2022-12-17T15:45:11.074Z,31.20
2022-12-17T15:50:05.715Z,30.23
2022-12-17T15:52:32.692Z,29.77
2022-12-17T15:55:02.225Z,31.33
2022-12-17T15:57:31.287Z,30.98
2022-12-17T15:59:58.271Z,30.58
2022-12-17T16:02:25.505Z,31.63
2022-12-17T16:07:19.727Z,31.55
2022-12-17T16:09:46.670Z,30.70
2022-12-17T16:12:13.668Z,31.98
2022-12-17T16:14:45.633Z,30.80
2022-12-17T16:17:12.980Z,33.70
2022-12-17T16:19:40.022Z,32.28
2022-12-17T16:22:07.130Z,32.28
2022-12-17T16:24:34.278Z,32.17
2022-12-17T16:29:31.698Z,31.85
2022-12-17T16:31:59.949Z,32.58
2022-12-17T16:34:29.471Z,33.58
2022-12-17T16:36:59.583Z,34.38
2022-12-17T16:39:29.782Z,33.20
2022-12-17T16:44:24.291Z,34.88
2022-12-17T16:46:56.151Z,36.88
2022-12-17T16:49:29.587Z,35.72
2022-12-17T16:51:57.861Z,35.40
2022-12-17T16:54:35.029Z,35.25
2022-12-17T16:57:04.149Z,35.55
2022-12-17T16:59:31.350Z,34.75
2022-12-17T17:04:25.618Z,33.42
2022-12-17T17:06:55.687Z,33.50
2022-12-17T17:09:27.821Z,35.95
2022-12-17T17:11:59.062Z,35.17
2022-12-17T17:14:26.851Z,33.80
2022-12-17T17:16:53.970Z,34.28
2022-12-17T17:19:21.004Z,34.63
2022-12-17T17:21:54.651Z,33.33
2022-12-17T17:24:25.916Z,33.38
2022-12-17T17:26:54.024Z,34.55
2022-12-17T17:29:23.327Z,33.88
2022-12-17T17:32:09.926Z,33.58
2022-12-17T17:34:39.078Z,34.72
2022-12-17T17:37:06.305Z,35.85
2022-12-17T17:42:03.200Z,34.30
2022-12-17T17:44:30.268Z,37.47
2022-12-17T17:47:00.491Z,35.25
2022-12-17T17:49:27.737Z,37.38
2022-12-17T17:52:11.672Z,35.75
2022-12-17T17:54:42.622Z,33.67
2022-12-17T17:57:12.185Z,34.55
2022-12-17T17:59:39.669Z,36.03
2022-12-17T18:02:10.645Z,34.65
2022-12-17T18:04:40.138Z,35.83
2022-12-17T18:09:56.738Z,37.58
2022-12-17T18:12:42.324Z,35.40
2022-12-17T18:15:14.852Z,35.13
2022-12-17T18:17:47.805Z,35.53
2022-12-17T18:20:15.191Z,35.22
2022-12-17T18:22:46.499Z,34.38
2022-12-17T18:25:16.693Z,32.28
2022-12-17T18:27:44.477Z,32.38
2022-12-17T18:30:16.309Z,33.17
2022-12-17T18:32:43.432Z,32.60
2022-12-17T18:35:12.737Z,32.58
2022-12-17T18:37:45.194Z,31.92
2022-12-17T18:40:12.129Z,33.95
2022-12-17T18:43:03.432Z,33.60
2022-12-17T18:45:30.439Z,32.75
2022-12-17T18:47:59.603Z,33.35
2022-12-17T18:50:28.774Z,33.05
2022-12-17T18:52:56.071Z,33.13
2022-12-17T18:55:26.274Z,32.53
2022-12-17T18:57:55.464Z,32.45
2022-12-17T19:00:24.812Z,32.20
2022-12-17T19:02:51.894Z,31.48
2022-12-17T19:07:45.960Z,30.92
2022-12-17T19:12:39.932Z,33.77
2022-12-17T19:15:09.752Z,32.22
2022-12-17T19:17:36.776Z,32.65
2022-12-17T19:20:04.172Z,34.20
2022-12-17T19:22:31.101Z,34.08
2022-12-17T19:27:29.019Z,32.55
2022-12-17T19:29:57.196Z,32.20
2022-12-17T19:32:27.237Z,35.22
2022-12-17T19:35:00.760Z,35.97
2022-12-17T19:37:27.817Z,34.42
2022-12-17T19:39:57.258Z,34.80
2022-12-17T19:42:36.811Z,35.83
2022-12-17T19:45:08.240Z,33.47
2022-12-17T19:47:38.235Z,35.33
2022-12-17T19:50:05.960Z,36.83
2022-12-17T19:52:35.854Z,36.17
2022-12-17T19:55:02.991Z,35.40
2022-12-17T19:59:57.630Z,32.73
2022-12-17T20:02:32.266Z,33.93
2022-12-17T20:04:59.722Z,34.60
2022-12-17T20:07:26.673Z,33.47
2022-12-17T20:09:56.370Z,35.03
2022-12-17T20:12:23.442Z,35.87
2022-12-17T20:14:50.445Z,33.60
2022-12-17T20:17:25.973Z,30.67
2022-12-17T20:19:54.855Z,29.63
2022-12-17T20:22:25.256Z,29.10
2022-12-17T20:24:55.575Z,31.13
2022-12-17T20:27:22.672Z,28.67
2022-12-17T20:29:49.630Z,28.15
2022-12-17T20:32:19.379Z,29.60
2022-12-17T20:34:46.857Z,28.90
2022-12-17T20:37:13.843Z,29.20
2022-12-17T20:39:40.749Z,28.42
2022-12-17T20:42:08.902Z,29.90
2022-12-17T20:44:41.461Z,32.10
2022-12-17T20:47:08.463Z,32.27
2022-12-17T20:49:35.640Z,31.15
2022-12-17T20:52:10.294Z,34.20
2022-12-17T20:54:40.329Z,33.87
2022-12-17T20:57:08.505Z,32.38
2022-12-17T20:59:37.738Z,32.03
2022-12-17T21:02:04.804Z,31.53
2022-12-17T21:06:58.963Z,31.43
2022-12-17T21:09:28.718Z,33.03
2022-12-17T21:11:55.741Z,32.53
2022-12-17T21:14:28.088Z,29.90
2022-12-17T21:17:01.365Z,30.67
2022-12-17T21:19:32.223Z,30.07
2022-12-17T21:21:59.389Z,30.97
2022-12-17T21:26:53.493Z,27.37
